Time;durP1;ratioP1;P1;durP2;ratioP2;P2;SDS_P1;SDS_P2;PMS_P1;PMS_P2;Temp;Humidity;BMP_temperature;BMP_pressure;BME280_temperature;BME280_humidity;BME280_pressure;Samples;Min_cycle;Max_cycle;Signal;HPM_P1;HPM_P2
2022/09/22 00:01:34;;;;;;;2.67;1.80;;;7.70;99.90;;;;;;4389835;27;9999947;-81
2022/09/22 00:04:04;;;;;;;2.47;2.00;;;7.60;99.90;;;;;;5094431;27;20511;-81
2022/09/22 00:06:37;;;;;;;3.72;2.08;;;7.60;99.90;;;;;;5091825;27;20035;-81
2022/09/22 00:09:06;;;;;;;4.00;2.35;;;7.60;99.90;;;;;;5098241;27;20121;-81
2022/09/22 00:11:35;;;;;;;3.90;1.83;;;7.60;99.90;;;;;;5091016;27;20028;-81
2022/09/22 00:14:25;;;;;;;5.93;1.92;;;7.60;99.90;;;;;;5096361;27;20039;-80
2022/09/22 00:16:56;;;;;;;2.35;1.60;;;7.60;99.90;;;;;;5081148;27;20062;-81
2022/09/22 00:19:25;;;;;;;2.70;1.80;;;7.60;99.90;;;;;;5093666;28;20028;-81
2022/09/22 00:21:51;;;;;;;1.90;1.70;;;7.60;99.90;;;;;;5094406;28;20019;-81
2022/09/22 00:24:18;;;;;;;3.47;1.90;;;7.50;99.90;;;;;;5091610;27;20028;-81
2022/09/22 00:26:44;;;;;;;4.07;1.73;;;7.40;99.90;;;;;;5089917;27;20027;-81
2022/09/22 00:29:10;;;;;;;2.28;1.70;;;7.40;99.90;;;;;;5096016;27;20030;-80
2022/09/22 00:31:38;;;;;;;2.60;1.77;;;7.40;99.90;;;;;;5095091;27;20034;-81
2022/09/22 00:34:04;;;;;;;2.33;1.75;;;7.40;99.90;;;;;;5092873;27;20027;-81
2022/09/22 00:36:30;;;;;;;4.35;2.00;;;7.40;99.90;;;;;;5093158;27;20486;-80
2022/09/22 00:38:57;;;;;;;4.22;1.88;;;7.40;99.90;;;;;;5096843;27;20050;-81
2022/09/22 00:41:27;;;;;;;2.72;2.15;;;7.40;99.90;;;;;;5093085;27;20046;-81
2022/09/22 00:44:15;;;;;;;3.83;2.10;;;7.40;99.90;;;;;;5092954;28;20024;-81
2022/09/22 00:46:44;;;;;;;2.20;1.83;;;7.40;99.90;;;;;;5089077;28;20063;-81
2022/09/22 00:49:12;;;;;;;4.18;2.03;;;7.40;99.90;;;;;;5093865;28;20036;-81
2022/09/22 00:51:40;;;;;;;3.22;2.10;;;7.40;99.90;;;;;;5095141;28;20024;-81
2022/09/22 00:54:10;;;;;;;3.90;2.10;;;7.40;99.90;;;;;;5092595;28;20849;-81
2022/09/22 00:56:54;;;;;;;3.10;2.00;;;7.40;99.90;;;;;;5092599;27;20031;-81
2022/09/22 00:59:22;;;;;;;3.13;2.13;;;7.40;99.90;;;;;;5094076;28;20051;-81
2022/09/22 01:01:48;;;;;;;3.25;2.28;;;7.30;99.90;;;;;;5095692;27;20512;-81
2022/09/22 01:04:16;;;;;;;2.88;2.28;;;7.20;99.90;;;;;;5097548;27;20028;-81
2022/09/22 01:06:42;;;;;;;2.95;2.22;;;7.10;99.90;;;;;;5089011;27;20346;-81
2022/09/22 01:09:08;;;;;;;5.50;2.50;;;7.10;99.90;;;;;;5097100;27;20036;-81
2022/09/22 01:11:35;;;;;;;3.08;2.33;;;7.10;99.90;;;;;;5093702;27;20020;-82
2022/09/22 01:14:39;;;;;;;3.97;2.67;;;7.10;99.90;;;;;;5094287;27;20031;-81
2022/09/22 01:17:21;;;;;;;7.10;3.00;;;7.10;99.90;;;;;;5091663;27;20099;-81
2022/09/22 01:20:11;;;;;;;4.45;3.00;;;7.10;99.90;;;;;;5093619;27;20590;-81
2022/09/22 01:23:01;;;;;;;4.00;3.05;;;7.10;99.90;;;;;;5093695;27;21006;-82
2022/09/22 01:26:07;;;;;;;5.38;3.13;;;7.10;99.90;;;;;;5093277;27;20058;-80
2022/09/22 01:28:52;;;;;;;5.93;3.10;;;7.00;99.90;;;;;;5093309;27;20027;-81
2022/09/22 01:31:30;;;;;;;4.03;2.92;;;7.00;99.90;;;;;;5097162;27;20023;-81
2022/09/22 01:34:07;;;;;;;4.15;2.95;;;6.90;99.90;;;;;;5096560;27;20444;-79
2022/09/22 01:36:51;;;;;;;3.67;2.97;;;6.90;99.90;;;;;;5093383;27;20028;-80
2022/09/22 01:39:27;;;;;;;5.07;2.92;;;6.90;99.90;;;;;;5090095;27;20122;-81
2022/09/22 01:42:15;;;;;;;3.30;2.88;;;6.90;99.90;;;;;;5108915;27;20103;-80
2022/09/22 01:45:01;;;;;;;3.03;2.60;;;6.90;99.90;;;;;;5117978;27;20490;-81
2022/09/22 01:47:39;;;;;;;3.78;2.60;;;6.90;99.90;;;;;;5113590;27;20028;-81
2022/09/22 01:50:15;;;;;;;3.30;2.65;;;6.90;99.90;;;;;;5110280;27;20090;-81
2022/09/22 01:52:42;;;;;;;4.75;2.85;;;6.90;99.90;;;;;;5114438;27;20027;-80
2022/09/22 01:55:10;;;;;;;5.20;3.10;;;6.90;99.90;;;;;;5114158;27;20526;-81
2022/09/22 01:57:42;;;;;;;3.55;2.80;;;6.80;99.90;;;;;;5105968;27;20027;-81
2022/09/22 02:00:08;;;;;;;4.15;2.83;;;6.90;99.90;;;;;;5109597;27;20222;-81
2022/09/22 02:03:01;;;;;;;4.32;2.40;;;6.80;99.90;;;;;;5094943;27;20031;-81
2022/09/22 02:05:34;;;;;;;3.25;2.70;;;6.80;99.90;;;;;;5108397;27;20035;-81
2022/09/22 02:08:03;;;;;;;7.95;3.00;;;6.80;99.90;;;;;;5108728;27;20039;-81
2022/09/22 02:10:39;;;;;;;5.05;3.15;;;6.80;99.90;;;;;;5109985;27;20030;-81
2022/09/22 02:13:04;;;;;;;5.35;3.40;;;6.80;99.90;;;;;;5111623;27;20495;-81
2022/09/22 02:18:24;;;;;;;4.82;2.90;;;6.90;99.90;;;;;;5104481;27;20399;-81
2022/09/22 02:20:50;;;;;;;3.45;2.90;;;6.80;99.90;;;;;;5116015;27;20224;-80
2022/09/22 02:23:16;;;;;;;4.07;2.85;;;6.80;99.90;;;;;;5108315;27;20024;-81
2022/09/22 02:25:43;;;;;;;3.10;2.55;;;6.70;99.90;;;;;;5111792;27;20025;-81
2022/09/22 02:28:12;;;;;;;4.13;2.40;;;6.70;99.90;;;;;;5110238;27;20093;-81
2022/09/22 02:30:40;;;;;;;3.45;2.70;;;6.70;99.90;;;;;;5121155;27;20062;-81
2022/09/22 02:33:07;;;;;;;3.30;3.00;;;6.70;99.90;;;;;;5115574;27;20660;-82
2022/09/22 02:35:36;;;;;;;4.65;3.05;;;6.70;99.90;;;;;;5113681;27;20038;-81
2022/09/22 02:38:19;;;;;;;4.53;3.10;;;6.70;99.90;;;;;;5111854;27;20383;-81
2022/09/22 02:40:56;;;;;;;3.00;2.70;;;6.70;99.90;;;;;;5112806;27;20043;-81
2022/09/22 02:43:42;;;;;;;3.20;2.53;;;6.60;99.90;;;;;;5118165;27;20023;-81
2022/09/22 02:46:29;;;;;;;4.75;3.20;;;6.60;99.90;;;;;;5114348;27;20031;-81
2022/09/22 02:49:06;;;;;;;4.55;2.80;;;6.50;99.90;;;;;;5110059;27;20052;-81
2022/09/22 02:51:33;;;;;;;4.03;2.97;;;6.50;99.90;;;;;;5105530;27;20368;-81
2022/09/22 02:54:00;;;;;;;3.75;2.80;;;6.50;99.90;;;;;;5106212;27;20469;-81
2022/09/22 02:56:26;;;;;;;4.07;3.10;;;6.50;99.90;;;;;;5113296;27;20027;-80
2022/09/22 02:58:52;;;;;;;3.28;2.75;;;6.50;99.90;;;;;;5109043;27;20072;-79
2022/09/22 03:01:18;;;;;;;5.32;2.90;;;6.40;99.90;;;;;;5116404;27;20034;-81
2022/09/22 03:03:43;;;;;;;3.67;2.70;;;6.40;99.90;;;;;;5113117;27;20118;-81
2022/09/22 03:06:09;;;;;;;3.95;2.70;;;6.30;99.90;;;;;;5115685;27;20027;-81
2022/09/22 03:08:35;;;;;;;3.15;2.70;;;6.30;99.90;;;;;;5114035;27;20471;-80
2022/09/22 03:11:00;;;;;;;3.55;3.00;;;6.30;99.90;;;;;;5110544;27;20517;-79
2022/09/22 03:13:26;;;;;;;4.68;2.80;;;6.30;99.90;;;;;;5109492;27;20375;-81
2022/09/22 03:15:52;;;;;;;3.53;2.60;;;6.30;99.90;;;;;;5113861;28;20024;-81
2022/09/22 03:18:17;;;;;;;4.18;2.78;;;6.30;99.90;;;;;;5113267;28;20109;-81
2022/09/22 03:20:43;;;;;;;3.15;2.60;;;6.20;99.90;;;;;;5114297;28;20072;-81
2022/09/22 03:23:09;;;;;;;4.57;2.85;;;6.20;99.90;;;;;;5113523;27;20304;-81
2022/09/22 03:25:34;;;;;;;4.15;3.08;;;6.20;99.90;;;;;;5114237;27;20026;-81
2022/09/22 03:28:00;;;;;;;3.38;2.70;;;6.10;99.90;;;;;;5107541;28;20050;-81
2022/09/22 03:30:26;;;;;;;3.72;2.88;;;6.10;99.90;;;;;;5104408;28;20145;-80
2022/09/22 03:32:51;;;;;;;2.95;2.70;;;6.10;99.90;;;;;;5111950;28;20015;-81
2022/09/22 03:35:17;;;;;;;3.25;2.90;;;6.20;99.90;;;;;;5111383;28;20377;-80
2022/09/22 03:37:43;;;;;;;4.20;3.00;;;6.10;99.90;;;;;;5109673;28;20484;-81
2022/09/22 03:40:09;;;;;;;4.53;3.33;;;6.10;99.90;;;;;;5115547;27;21999;-80
2022/09/22 03:42:35;;;;;;;5.40;3.67;;;6.10;99.90;;;;;;5112756;28;20510;-80
2022/09/22 03:45:03;;;;;;;5.70;3.80;;;6.10;99.90;;;;;;5115281;28;20031;-81
2022/09/22 03:47:28;;;;;;;4.65;3.70;;;6.10;99.90;;;;;;5110064;27;20028;-82
2022/09/22 03:49:54;;;;;;;4.85;4.18;;;6.10;99.90;;;;;;5113628;28;20035;-81
2022/09/22 03:52:20;;;;;;;4.93;4.40;;;6.10;99.90;;;;;;5108920;27;20027;-81
2022/09/22 03:54:45;;;;;;;4.40;4.00;;;6.10;99.90;;;;;;5111263;28;20039;-81
2022/09/22 03:57:11;;;;;;;5.50;3.90;;;6.10;99.90;;;;;;5111266;28;20031;-81
2022/09/22 03:59:36;;;;;;;4.97;4.10;;;6.10;99.90;;;;;;5107986;27;20027;-81
2022/09/22 04:02:03;;;;;;;5.05;4.30;;;6.00;99.90;;;;;;5112847;27;20113;-81
2022/09/22 04:04:29;;;;;;;5.10;4.05;;;6.00;99.90;;;;;;5119899;27;20039;-81
2022/09/22 04:06:54;;;;;;;5.75;3.80;;;5.90;99.90;;;;;;5110701;27;20042;-80
2022/09/22 04:09:20;;;;;;;4.18;3.67;;;5.90;99.90;;;;;;5104585;27;20242;-80
2022/09/22 04:11:46;;;;;;;4.78;3.47;;;5.90;99.90;;;;;;5110560;27;20312;-81
2022/09/22 04:14:11;;;;;;;3.78;3.42;;;5.80;99.90;;;;;;5115717;27;20386;-80
2022/09/22 04:16:41;;;;;;;5.03;3.42;;;5.80;99.90;;;;;;5120041;27;20042;-81
2022/09/22 04:19:09;;;;;;;5.25;3.88;;;5.80;99.90;;;;;;5119285;27;20054;-81
2022/09/22 04:21:35;;;;;;;4.53;4.03;;;5.80;99.90;;;;;;5113112;27;20031;-81
2022/09/22 04:24:01;;;;;;;4.00;3.60;;;5.80;99.90;;;;;;5119236;27;20096;-81
2022/09/22 04:26:26;;;;;;;5.22;4.07;;;5.80;99.90;;;;;;5120523;27;20498;-81
2022/09/22 04:28:52;;;;;;;4.97;4.18;;;5.80;99.90;;;;;;5116000;27;20016;-81
2022/09/22 04:31:18;;;;;;;2.75;2.55;;;5.80;99.90;;;;;;5123224;27;20018;-81
2022/09/22 04:33:44;;;;;;;2.00;1.90;;;5.80;99.90;;;;;;5112849;27;20023;-81
2022/09/22 04:36:09;;;;;;;3.05;2.00;;;5.70;99.90;;;;;;5115765;27;20482;-80
2022/09/22 04:38:35;;;;;;;2.25;2.00;;;5.60;99.90;;;;;;5117347;27;20023;-81
2022/09/22 04:41:01;;;;;;;3.25;2.17;;;5.60;99.90;;;;;;5122686;27;20125;-80
2022/09/22 04:43:26;;;;;;;3.03;2.15;;;5.50;99.90;;;;;;5120713;27;20122;-80
2022/09/22 04:45:52;;;;;;;2.08;1.80;;;5.50;99.90;;;;;;5114969;27;20031;-80
2022/09/22 04:48:18;;;;;;;2.05;1.95;;;5.50;99.90;;;;;;5112052;27;20466;-80
2022/09/22 04:50:43;;;;;;;1.95;1.85;;;5.50;99.90;;;;;;5118412;27;20030;-80
2022/09/22 04:53:09;;;;;;;2.05;1.92;;;5.40;99.90;;;;;;5113494;27;20035;-81
2022/09/22 04:55:34;;;;;;;2.63;2.10;;;5.30;99.90;;;;;;5112052;27;20031;-81
2022/09/22 04:58:00;;;;;;;4.63;3.22;;;5.30;99.90;;;;;;5117950;27;20188;-80
2022/09/22 05:00:28;;;;;;;4.18;3.30;;;5.30;99.90;;;;;;5109479;27;20123;-81
2022/09/22 05:02:54;;;;;;;5.40;3.67;;;5.30;99.90;;;;;;5124637;27;20627;-81
2022/09/22 05:05:22;;;;;;;6.85;3.95;;;5.40;99.90;;;;;;5117637;27;20043;-81
2022/09/22 05:07:52;;;;;;;5.43;4.47;;;5.30;99.90;;;;;;5118880;27;20030;-80
2022/09/22 05:10:18;;;;;;;5.63;4.65;;;5.30;99.90;;;;;;5108627;27;20015;-80
2022/09/22 05:12:44;;;;;;;6.65;5.10;;;5.40;99.90;;;;;;5117638;27;20475;-80
2022/09/22 05:15:12;;;;;;;6.30;5.47;;;5.30;99.90;;;;;;5117844;27;20049;-80
2022/09/22 05:17:45;;;;;;;9.10;5.15;;;5.30;99.90;;;;;;5121374;27;20023;-80
2022/09/22 05:20:10;;;;;;;5.75;4.20;;;5.30;99.90;;;;;;5134005;27;20559;-80
2022/09/22 05:22:38;;;;;;;7.57;5.30;;;5.30;99.90;;;;;;5123312;27;20119;-80
2022/09/22 05:25:06;;;;;;;6.13;4.53;;;5.30;99.90;;;;;;5121686;27;20097;-80
2022/09/22 05:27:31;;;;;;;4.60;4.07;;;5.20;99.90;;;;;;5108785;27;20103;-79
2022/09/22 05:29:57;;;;;;;4.72;3.75;;;5.20;99.90;;;;;;5115716;27;20031;-80
2022/09/22 05:32:22;;;;;;;5.05;4.22;;;5.20;99.90;;;;;;5121840;27;20024;-81
2022/09/22 05:34:48;;;;;;;3.92;3.55;;;5.20;99.90;;;;;;5108500;27;20041;-81
2022/09/22 05:37:14;;;;;;;5.13;3.67;;;5.20;99.90;;;;;;5111482;27;20034;-81
2022/09/22 05:39:39;;;;;;;6.38;5.00;;;5.20;99.90;;;;;;5106052;27;20020;-81
2022/09/22 05:42:05;;;;;;;6.35;4.65;;;5.20;99.90;;;;;;5115027;27;20039;-81
2022/09/22 05:44:30;;;;;;;5.45;4.43;;;5.20;99.90;;;;;;5113586;27;20602;-80
2022/09/22 05:46:56;;;;;;;9.00;5.60;;;5.20;99.90;;;;;;5114220;27;20026;-81
2022/09/22 05:49:22;;;;;;;24.75;17.77;;;5.20;99.90;;;;;;5111433;27;20027;-81
2022/09/22 05:51:47;;;;;;;22.70;16.40;;;5.20;99.90;;;;;;5113680;27;20039;-81
2022/09/22 05:54:13;;;;;;;20.20;14.95;;;5.20;99.90;;;;;;5124658;27;20030;-82
2022/09/22 05:56:38;;;;;;;17.45;12.07;;;5.30;99.90;;;;;;5117705;27;20069;-82
2022/09/22 05:59:04;;;;;;;12.43;9.23;;;5.30;99.90;;;;;;5105156;27;20062;-82
2022/09/22 06:01:29;;;;;;;11.20;8.10;;;5.30;99.90;;;;;;5102535;27;20273;-82
2022/09/22 06:03:55;;;;;;;9.32;7.75;;;5.30;99.90;;;;;;5111674;27;20035;-82
2022/09/22 06:06:21;;;;;;;14.55;6.57;;;5.40;99.90;;;;;;5117276;27;20407;-82
2022/09/22 06:08:46;;;;;;;8.32;6.18;;;5.40;99.90;;;;;;5111050;27;20058;-77
2022/09/22 06:11:12;;;;;;;6.82;5.85;;;;;;;;;;5113838;27;20031;-78
2022/09/22 06:13:38;;;;;;;6.85;5.55;;;5.60;99.90;;;;;;5126522;27;20450;-80
2022/09/22 06:16:07;;;;;;;6.37;5.57;;;5.50;99.90;;;;;;4517122;27;10001763;-78
2022/09/22 06:18:32;;;;;;;12.55;9.48;;;5.60;99.90;;;;;;5077506;28;20665;-78
2022/09/22 06:20:58;;;;;;;14.15;10.60;;;5.60;99.90;;;;;;5082935;28;20031;-78
2022/09/22 06:23:25;;;;;;;13.05;9.27;;;5.50;99.90;;;;;;5090269;28;20039;-79
2022/09/22 06:25:56;;;;;;;9.75;6.95;;;5.60;99.90;;;;;;5092263;28;20455;-78
2022/09/22 06:28:22;;;;;;;7.55;5.38;;;5.60;99.90;;;;;;5088354;27;20043;-77
2022/09/22 06:30:50;;;;;;;6.60;5.18;;;5.50;99.90;;;;;;5088356;28;20519;-77
2022/09/22 06:33:16;;;;;;;6.35;5.05;;;5.50;99.90;;;;;;5087049;28;20175;-77
2022/09/22 06:35:44;;;;;;;5.85;5.00;;;5.50;99.90;;;;;;5090499;28;20654;-77
2022/09/22 06:38:13;;;;;;;7.20;6.00;;;5.60;99.90;;;;;;5085701;27;20118;-77
2022/09/22 06:40:40;;;;;;;6.30;5.70;;;5.60;99.90;;;;;;5085472;28;20048;-77
2022/09/22 06:43:08;;;;;;;7.03;6.43;;;5.70;99.90;;;;;;5088284;27;20504;-83
2022/09/22 06:45:34;;;;;;;8.65;6.22;;;5.80;99.90;;;;;;5086690;28;20035;-85
2022/09/22 06:48:00;;;;;;;4.90;4.47;;;5.80;99.90;;;;;;5079338;28;20016;-81
2022/09/22 06:50:31;;;;;;;4.32;3.92;;;5.80;99.90;;;;;;5103681;27;20038;-77
2022/09/22 06:53:03;;;;;;;4.15;3.78;;;5.80;99.90;;;;;;5129546;27;20698;-82
2022/09/22 06:55:30;;;;;;;5.60;4.20;;;5.80;99.90;;;;;;5116055;27;20141;-83
2022/09/22 06:57:59;;;;;;;4.78;3.75;;;5.90;99.90;;;;;;5119149;27;20104;-79
2022/09/22 07:00:31;;;;;;;4.22;3.60;;;5.90;99.90;;;;;;5113241;27;20437;-85
2022/09/22 07:03:19;;;;;;;5.32;3.67;;;6.00;99.90;;;;;;5106571;27;20440;-84
2022/09/22 07:05:57;;;;;;;4.40;3.65;;;6.00;99.90;;;;;;5123601;27;20035;-85
2022/09/22 07:08:23;;;;;;;5.45;3.92;;;6.00;99.90;;;;;;5114857;27;20023;-80
2022/09/22 07:10:58;;;;;;;8.55;6.35;;;6.00;99.90;;;;;;5118945;27;20546;-80
2022/09/22 07:13:25;;;;;;;10.52;6.90;;;6.10;99.90;;;;;;5119309;27;20046;-84
2022/09/22 07:15:50;;;;;;;6.55;4.00;;;6.10;99.90;;;;;;5119441;27;20142;-85
2022/09/22 07:18:16;;;;;;;4.53;4.13;;;6.20;99.90;;;;;;5117956;27;20479;-84
2022/09/22 07:20:45;;;;;;;8.48;4.82;;;6.20;99.90;;;;;;5125105;27;20100;-81
2022/09/22 07:23:17;;;;;;;5.05;4.20;;;6.30;99.90;;;;;;5113218;28;20051;-82
2022/09/22 07:25:49;;;;;;;4.25;3.63;;;6.40;99.90;;;;;;5139219;27;20109;-84
2022/09/22 07:28:14;;;;;;;10.37;4.37;;;6.40;99.90;;;;;;5114141;27;20023;-82
2022/09/22 07:30:40;;;;;;;8.43;6.50;;;6.50;99.90;;;;;;5102448;28;20405;-83
2022/09/22 07:33:06;;;;;;;8.20;6.60;;;6.60;99.90;;;;;;5126267;27;20056;-83
2022/09/22 07:35:34;;;;;;;8.07;6.28;;;6.60;99.90;;;;;;5118472;27;20058;-80
2022/09/22 07:38:01;;;;;;;7.82;6.57;;;6.70;99.90;;;;;;5098124;27;20276;-78
2022/09/22 07:40:26;;;;;;;6.85;5.78;;;6.70;99.90;;;;;;5118838;27;20035;-78
2022/09/22 07:42:52;;;;;;;7.28;5.55;;;6.70;99.90;;;;;;5119642;27;20036;-75
2022/09/22 07:45:17;;;;;;;13.15;8.48;;;6.90;99.90;;;;;;5112914;27;20246;-79
2022/09/22 07:50:29;;;;;;;10.48;5.95;;;7.10;99.90;;;;;;5116936;27;20029;-82
2022/09/22 07:52:55;;;;;;;6.43;5.80;;;7.20;99.90;;;;;;5121736;27;20023;-82
2022/09/22 07:55:23;;;;;;;6.03;5.35;;;7.20;99.90;;;;;;5124783;27;20100;-81
2022/09/22 07:57:59;;;;;;;7.35;5.13;;;7.30;99.90;;;;;;5118606;27;20318;-81
2022/09/22 08:00:27;;;;;;;6.68;5.90;;;7.30;99.90;;;;;;5140707;27;20031;-82
2022/09/22 08:02:55;;;;;;;8.02;6.00;;;7.40;99.90;;;;;;5115311;27;20034;-82
2022/09/22 08:05:23;;;;;;;7.43;5.53;;;7.60;99.90;;;;;;5126613;27;20091;-81
2022/09/22 08:07:48;;;;;;;7.10;5.80;;;7.70;99.90;;;;;;5105855;27;20024;-81
2022/09/22 08:10:15;;;;;;;11.55;6.15;;;7.90;99.90;;;;;;5118275;27;20083;-82
2022/09/22 08:12:41;;;;;;;6.65;5.68;;;8.00;99.90;;;;;;5127899;27;20039;-82
2022/09/22 08:15:08;;;;;;;5.47;4.90;;;8.10;99.90;;;;;;5115195;27;20028;-82
2022/09/22 08:17:33;;;;;;;6.50;5.90;;;8.20;99.90;;;;;;5108739;27;20498;-82
2022/09/22 08:20:01;;;;;;;8.38;5.70;;;8.30;99.90;;;;;;5113308;27;20054;-81
2022/09/22 08:22:27;;;;;;;7.35;6.63;;;8.50;99.90;;;;;;5119422;27;20107;-82
2022/09/22 08:24:53;;;;;;;7.45;6.13;;;8.60;99.90;;;;;;5129123;27;20048;-82
2022/09/22 08:27:19;;;;;;;6.75;6.05;;;8.80;99.90;;;;;;5125644;27;20030;-82
2022/09/22 08:29:45;;;;;;;9.13;6.25;;;9.00;99.90;;;;;;5107607;27;20055;-83
2022/09/22 08:32:16;;;;;;;6.57;5.85;;;9.10;99.90;;;;;;5118920;27;20139;-80
2022/09/22 08:34:42;;;;;;;21.27;13.00;;;9.20;99.90;;;;;;5111821;27;20455;-81
2022/09/22 08:37:09;;;;;;;10.68;7.47;;;9.30;99.90;;;;;;5113579;27;20117;-81
2022/09/22 08:39:35;;;;;;;7.68;6.35;;;9.40;99.90;;;;;;5124170;27;20046;-80
2022/09/22 08:42:19;;;;;;;6.78;5.70;;;9.50;99.90;;;;;;5124132;27;20043;-82
2022/09/22 08:45:03;;;;;;;7.45;6.18;;;9.60;99.90;;;;;;5149560;27;20071;-81
2022/09/22 08:53:21;;;;;;;8.82;7.35;;;10.00;99.90;;;;;;5116504;27;20027;-81
2022/09/22 08:55:56;;;;;;;7.95;6.00;;;10.20;99.90;;;;;;5130446;27;20474;-82
2022/09/22 08:58:45;;;;;;;9.82;7.28;;;10.30;99.90;;;;;;5126499;27;20538;-82
2022/09/22 09:01:34;;;;;;;8.25;5.88;;;10.50;99.90;;;;;;5145459;27;20125;-82
2022/09/22 09:04:25;;;;;;;6.78;5.75;;;10.70;99.90;;;;;;5099491;28;20023;-81
2022/09/22 09:07:03;;;;;;;7.43;5.40;;;10.80;99.90;;;;;;4408851;27;10000707;-84
2022/09/22 09:09:47;;;;;;;7.35;5.28;;;10.90;99.90;;;;;;5108435;27;20023;-84
2022/09/22 09:12:19;;;;;;;7.95;6.00;;;11.00;99.90;;;;;;5138488;27;20023;-85
2022/09/22 09:15:04;;;;;;;9.32;6.45;;;11.20;99.90;;;;;;5144289;27;20019;-84
2022/09/22 09:17:34;;;;;;;6.70;5.18;;;11.40;99.90;;;;;;5111000;27;20040;-86
2022/09/22 09:20:49;;;;;;;7.82;5.63;;;11.50;99.90;;;;;;5145557;27;20497;-81
2022/09/22 09:23:36;;;;;;;7.32;5.63;;;11.70;99.90;;;;;;5119996;27;20077;-86
2022/09/22 09:26:03;;;;;;;6.32;4.68;;;11.80;99.90;;;;;;5102325;27;20082;-84
2022/09/22 09:28:41;;;;;;;6.20;4.82;;;11.90;99.90;;;;;;5138177;27;20037;-84
2022/09/22 09:31:34;;;;;;;5.43;4.60;;;12.10;99.90;;;;;;5140578;27;20033;-87
2022/09/22 09:34:04;;;;;;;6.55;4.43;;;12.20;99.90;;;;;;5113020;27;20512;-80
2022/09/22 09:36:38;;;;;;;6.65;4.47;;;12.40;99.90;;;;;;5116776;27;20059;-84
2022/09/22 09:39:26;;;;;;;;;;;12.50;99.90;;;;;;5133570;27;20172;-81
2022/09/22 09:41:54;;;;;;;8.05;5.40;;;12.60;99.90;;;;;;5098385;27;19921;-83
2022/09/22 09:44:35;;;;;;;8.23;6.72;;;12.60;99.90;;;;;;5112955;27;20035;-84
2022/09/22 09:47:06;;;;;;;7.68;5.53;;;12.80;99.90;;;;;;5121745;27;20243;-82
2022/09/22 09:49:32;;;;;;;6.05;5.00;;;12.90;99.90;;;;;;5115527;27;20078;-81
2022/09/22 09:52:02;;;;;;;8.25;5.00;;;13.00;99.90;;;;;;5121172;27;20507;-79
2022/09/22 09:54:28;;;;;;;4.45;4.00;;;13.10;99.90;;;;;;5116116;27;20043;-80
2022/09/22 09:57:12;;;;;;;6.63;4.90;;;13.20;99.90;;;;;;5103234;27;20419;-80
2022/09/22 10:02:32;;;;;;;7.60;4.13;;;13.60;99.90;;;;;;5113462;27;20059;-83
2022/09/22 10:05:16;;;;;;;6.10;3.40;;;13.90;99.90;;;;;;5123414;27;20038;-84
2022/09/22 10:07:43;;;;;;;4.60;3.60;;;14.00;99.90;;;;;;5114736;27;20084;-85
2022/09/22 10:10:28;;;;;;;4.20;3.20;;;14.20;99.90;;;;;;5114865;27;20426;-84
2022/09/22 10:13:25;;;;;;;5.75;3.38;;;14.30;99.90;;;;;;5119098;27;20076;-84
2022/09/22 10:16:19;;;;;;;6.15;3.60;;;14.50;99.90;;;;;;5088547;27;20095;-84
2022/09/22 10:18:45;;;;;;;7.95;5.57;;;14.50;99.90;;;;;;5113378;27;20052;-85
2022/09/22 10:21:22;;;;;;;6.18;3.08;;;14.60;99.90;;;;;;5141903;27;20026;-84
2022/09/22 10:23:51;;;;;;;5.60;3.10;;;14.70;99.90;;;;;;5116359;27;20441;-85
2022/09/22 10:26:28;;;;;;;6.13;3.25;;;14.80;99.90;;;;;;5124198;27;20803;-82
2022/09/22 10:29:13;;;;;;;3.58;2.38;;;15.00;99.90;;;;;;5137031;27;20027;-87
2022/09/22 10:31:40;;;;;;;3.88;2.60;;;15.10;99.90;;;;;;5115553;27;20042;-85
2022/09/22 10:34:30;;;;;;;4.07;2.90;;;15.30;99.90;;;;;;5115462;27;20111;-87
2022/09/22 10:36:58;;;;;;;5.18;2.28;;;15.30;99.90;;;;;;5118614;27;20162;-86
2022/09/22 10:39:51;;;;;;;6.68;2.60;;;15.40;99.90;;;;;;5105395;27;20049;-82
2022/09/22 10:42:42;;;;;;;5.88;2.58;;;15.50;99.90;;;;;;5111983;27;20034;-83
2022/09/22 10:45:14;;;;;;;4.18;2.20;;;15.60;99.90;;;;;;5123055;27;20092;-84
2022/09/22 10:47:54;;;;;;;5.57;2.20;;;15.50;99.90;;;;;;5119438;27;20015;-78
2022/09/22 10:50:20;;;;;;;3.00;1.85;;;15.60;99.90;;;;;;5115309;27;20019;-79
2022/09/22 10:53:26;;;;;;;3.95;1.80;;;15.80;99.90;;;;;;5125237;27;20019;-83
2022/09/22 10:56:07;;;;;;;3.75;1.90;;;16.00;99.90;;;;;;5125239;27;20564;-83
2022/09/22 10:58:55;;;;;;;5.07;2.08;;;16.10;99.90;;;;;;5093686;27;20110;-81
2022/09/22 11:01:48;;;;;;;3.75;2.20;;;16.10;99.90;;;;;;5098584;28;20586;-80
2022/09/22 11:04:23;;;;;;;3.30;2.13;;;16.20;99.90;;;;;;5123003;27;20391;-80
2022/09/22 11:13:36;;;;;;;7.97;3.25;;;16.50;99.90;;;;;;5124081;27;20030;-84
2022/09/22 11:16:10;;;;;;;7.25;3.25;;;16.50;99.90;;;;;;5129631;27;20534;-84
2022/09/22 11:18:42;;;;;;;7.22;3.00;;;16.60;99.90;;;;;;5116200;27;20828;-80
2022/09/22 11:21:13;;;;;;;4.03;2.13;;;16.60;99.90;;;;;;5104913;27;20024;-84
2022/09/22 11:23:57;;;;;;;3.65;1.70;;;16.60;99.90;;;;;;5129456;27;20041;-83
2022/09/22 11:26:44;;;;;;;3.67;1.23;;;16.70;99.90;;;;;;5110250;28;20035;-83
2022/09/22 11:29:37;;;;;;;4.90;1.55;;;16.90;99.90;;;;;;5126608;27;20383;-83
2022/09/22 11:32:05;;;;;;;3.45;1.40;;;17.00;99.90;;;;;;5135982;27;20573;-84
2022/09/22 11:34:49;;;;;;;5.07;1.33;;;17.10;99.90;;;;;;5112366;28;20039;-89
2022/09/22 11:37:26;;;;;;;3.67;1.08;;;17.20;99.90;;;;;;5102268;28;20060;-88
2022/09/22 11:40:47;;;;;;;3.75;1.13;;;17.20;99.90;;;;;;5133745;27;20549;-89
2022/09/22 11:43:25;;;;;;;4.47;1.10;;;17.30;99.90;;;;;;5113738;27;20047;-81
2022/09/22 11:46:05;;;;;;;4.53;1.05;;;17.30;99.90;;;;;;5127435;27;20019;-82
2022/09/22 11:48:52;;;;;;;4.80;2.08;;;17.40;99.90;;;;;;5107517;27;20058;-81
2022/09/22 11:51:36;;;;;;;4.38;2.33;;;17.40;99.90;;;;;;5111697;27;20019;-82
2022/09/22 11:57:30;;;;;;;4.75;1.85;;;17.60;99.90;;;;;;5114438;27;20287;-82
2022/09/22 12:00:19;;;;;;;2.88;1.00;;;17.60;99.90;;;;;;5127023;27;20110;-82
2022/09/22 12:02:47;;;;;;;4.95;1.90;;;17.60;99.90;;;;;;5117570;28;20026;-82
2022/09/22 12:05:25;;;;;;;3.17;1.33;;;17.70;99.90;;;;;;5113848;27;20473;-82
2022/09/22 12:08:03;;;;;;;2.08;1.02;;;17.80;99.90;;;;;;5102156;28;20032;-81
2022/09/22 12:10:34;;;;;;;5.45;1.05;;;17.90;99.90;;;;;;5121835;27;20034;-81
2022/09/22 12:13:01;;;;;;;6.40;1.70;;;18.00;99.90;;;;;;5108295;27;20390;-82
2022/09/22 12:15:42;;;;;;;3.00;1.00;;;17.90;99.90;;;;;;5114621;28;20551;-81
2022/09/22 12:18:35;;;;;;;5.07;1.42;;;17.90;99.30;;;;;;5108888;27;20419;-88
2022/09/22 12:21:44;;;;;;;11.73;1.42;;;18.00;99.90;;;;;;5111470;27;20074;-83
2022/09/22 12:24:11;;;;;;;3.63;1.25;;;18.00;99.90;;;;;;5018933;28;20087;-83
2022/09/22 12:26:42;;;;;;;3.17;1.20;;;18.20;99.90;;;;;;5110359;27;20039;-84
2022/09/22 12:29:23;;;;;;;2.85;1.10;;;18.30;99.40;;;;;;5133596;27;20224;-84
2022/09/22 12:31:51;;;;;;;4.30;2.33;;;18.40;99.70;;;;;;5124551;27;20451;-84
2022/09/22 12:34:19;;;;;;;2.33;1.02;;;18.50;99.90;;;;;;5114858;27;20037;-83
2022/09/22 12:36:46;;;;;;;3.88;1.70;;;18.50;99.50;;;;;;5132036;27;20027;-84
2022/09/22 12:39:42;;;;;;;2.90;1.70;;;18.60;99.10;;;;;;5115541;27;20472;-81
2022/09/22 12:42:21;;;;;;;2.45;1.05;;;18.50;98.10;;;;;;5109773;27;20043;-88
2022/09/22 12:45:00;;;;;;;3.13;1.20;;;18.60;98.50;;;;;;5121961;27;20475;-88
2022/09/22 12:47:40;;;;;;;3.17;1.42;;;18.60;97.30;;;;;;5114997;27;20513;-88
2022/09/22 12:50:33;;;;;;;2.80;1.05;;;18.70;97.70;;;;;;5112876;27;20457;-87
2022/09/22 12:53:01;;;;;;;4.68;1.00;;;18.70;96.30;;;;;;5109998;27;20108;-87
2022/09/22 12:55:27;;;;;;;3.70;1.13;;;18.70;97.20;;;;;;5125266;27;20031;-87
2022/09/22 12:57:56;;;;;;;4.43;1.20;;;18.70;95.00;;;;;;5123607;27;20027;-90
2022/09/22 13:00:35;;;;;;;2.47;0.75;;;18.60;94.30;;;;;;5126641;27;20019;-88
2022/09/22 13:03:41;;;;;;;4.70;1.40;;;18.60;94.70;;;;;;4396597;27;10000657;-90
2022/09/22 13:06:21;;;;;;;4.55;1.10;;;18.80;93.70;;;;;;5088682;27;20043;-89
2022/09/22 13:08:47;;;;;;;1.85;0.90;;;19.00;94.50;;;;;;5113980;27;20031;-90
2022/09/22 13:11:13;;;;;;;1.90;0.88;;;19.10;94.90;;;;;;5104877;28;20557;-88
2022/09/22 13:13:49;;;;;;;4.88;0.90;;;18.90;94.20;;;;;;5103833;27;20040;-89
2022/09/22 13:16:14;;;;;;;5.53;1.17;;;18.70;94.00;;;;;;5126245;27;20372;-89
2022/09/22 13:18:44;;;;;;;1.80;0.75;;;18.70;94.00;;;;;;5105804;27;20024;-90
2022/09/22 13:21:12;;;;;;;2.03;1.00;;;18.80;93.10;;;;;;5124088;27;20479;-89
2022/09/22 13:23:50;;;;;;;6.35;1.20;;;19.00;93.40;;;;;;5124109;27;20353;-89
2022/09/22 13:26:20;;;;;;;1.13;0.63;;;19.00;90.60;;;;;;5125175;27;20495;-89
2022/09/22 13:29:05;;;;;;;1.40;0.80;;;19.00;89.10;;;;;;5128068;27;20039;-88
2022/09/22 13:31:40;;;;;;;3.30;0.95;;;19.00;90.80;;;;;;5127866;27;20072;-90
2022/09/22 13:34:34;;;;;;;4.85;1.00;;;18.90;90.10;;;;;;5108695;27;20019;-89
2022/09/22 13:37:18;;;;;;;2.90;0.88;;;18.80;87.70;;;;;;5120409;27;20032;-89
2022/09/22 13:39:48;;;;;;;2.75;0.70;;;18.50;90.00;;;;;;5109570;27;20038;-89
2022/09/22 13:42:21;;;;;;;3.78;0.98;;;18.30;89.50;;;;;;5113401;27;20074;-89
2022/09/22 13:45:02;;;;;;;3.40;0.70;;;18.40;90.00;;;;;;5106577;28;20062;-90